Terminal Aerodrome Forecast
Issued by NWS

Home | Current Version | Previous Version | Graphics & Text | Print | Product List | Glossary On
Versions: 1 2 3 4 5 6 7 8 9 10 11 12 13 14 15 16 17 18 19 20 21
000
FTUS43 KGRB 220746 AAA
TAFATW
TAF AMD
KATW 220746Z 2208/2306 02004KT 4SM BR OVC004
     FM221000 02004KT 3SM BR OVC004
      TEMPO 2210/2214 1 1/2SM -DZ BR OVC002
     FM221400 02005KT P6SM BKN019
     FM221700 09004KT P6SM SCT200=

USA.gov is the U.S. government's official web portal to all federal, state and local government web resources and services.